Time;durP1;ratioP1;P1;durP2;ratioP2;P2;SDS_P1;SDS_P2;PMS_P1;PMS_P2;Temp;Humidity;BMP_temperature;BMP_pressure;BME280_temperature;BME280_humidity;BME280_pressure;Samples;Min_cycle;Max_cycle;Signal;HPM_P1;HPM_P2
2024/01/05 00:00:25;;;;;;;9.23;3.40;;;1.70;99.90;;;;;;2046730;28;20658;-64
2024/01/05 00:01:26;;;;;;;6.90;2.83;;;1.70;99.90;;;;;;2047585;28;20226;-65
2024/01/05 00:02:26;;;;;;;5.35;3.30;;;1.70;99.90;;;;;;2045667;28;20623;-65
2024/01/05 00:03:27;;;;;;;4.70;2.70;;;1.80;99.90;;;;;;2045201;28;20246;-65
2024/01/05 00:04:28;;;;;;;3.70;2.57;;;1.80;99.90;;;;;;2044050;28;20234;-64
2024/01/05 00:05:28;;;;;;;6.63;3.17;;;1.90;99.90;;;;;;2044467;28;20898;-65
2024/01/05 00:06:29;;;;;;;6.33;2.83;;;1.80;99.90;;;;;;2046694;28;20258;-65
2024/01/05 00:07:30;;;;;;;7.57;2.97;;;1.90;99.90;;;;;;2047338;28;20237;-64
2024/01/05 00:08:30;;;;;;;7.03;3.20;;;1.90;99.90;;;;;;2047139;28;20270;-65
2024/01/05 00:09:31;;;;;;;6.33;4.13;;;1.90;99.90;;;;;;2044490;28;20266;-65
2024/01/05 00:10:32;;;;;;;5.87;3.17;;;1.90;99.90;;;;;;2043661;28;20232;-64
2024/01/05 00:11:32;;;;;;;6.27;3.53;;;1.90;99.90;;;;;;2046312;28;20653;-64
2024/01/05 00:12:33;;;;;;;5.17;2.67;;;1.90;99.90;;;;;;2045251;28;20404;-64
2024/01/05 00:13:34;;;;;;;5.90;3.67;;;2.00;99.90;;;;;;2044730;28;20234;-63
2024/01/05 00:14:37;;;;;;;4.57;2.47;;;2.00;99.90;;;;;;2043402;28;20292;-64
2024/01/05 00:15:38;;;;;;;7.18;3.53;;;2.00;99.90;;;;;;2046510;28;20286;-65
2024/01/05 00:16:38;;;;;;;5.33;2.53;;;2.00;99.90;;;;;;2045693;28;20309;-65
2024/01/05 00:17:39;;;;;;;8.40;2.90;;;2.10;99.90;;;;;;2045756;28;20226;-65
2024/01/05 00:18:40;;;;;;;7.77;2.90;;;2.10;99.90;;;;;;2045066;28;20221;-63
2024/01/05 00:19:40;;;;;;;4.40;2.50;;;2.10;99.90;;;;;;2044166;28;20229;-63
2024/01/05 00:20:41;;;;;;;9.53;2.73;;;2.10;99.90;;;;;;2046706;28;20587;-64
2024/01/05 00:21:42;;;;;;;6.53;3.23;;;2.00;99.90;;;;;;2045465;28;20226;-63
2024/01/05 00:22:42;;;;;;;5.50;3.10;;;2.10;99.90;;;;;;2044734;28;20218;-66
2024/01/05 00:23:43;;;;;;;5.77;2.93;;;2.10;99.90;;;;;;2044635;28;20226;-64
2024/01/05 00:24:44;;;;;;;5.90;2.70;;;2.10;99.90;;;;;;2044209;28;20233;-64
2024/01/05 00:25:44;;;;;;;5.70;2.63;;;2.10;99.90;;;;;;2046861;28;20224;-64
2024/01/05 00:26:45;;;;;;;6.10;3.10;;;2.10;99.90;;;;;;2046681;28;20625;-64
2024/01/05 00:27:46;;;;;;;5.10;2.80;;;2.00;99.90;;;;;;2045058;28;20253;-64
2024/01/05 00:28:48;;;;;;;4.27;2.80;;;2.10;99.90;;;;;;2043277;28;20268;-63
2024/01/05 00:29:49;;;;;;;6.28;3.03;;;2.10;99.90;;;;;;2043784;28;20228;-63
2024/01/05 00:30:50;;;;;;;7.13;3.53;;;2.00;99.90;;;;;;2046869;28;20239;-63
2024/01/05 00:31:50;;;;;;;6.33;3.23;;;2.00;99.90;;;;;;2045878;28;20242;-63
2024/01/05 00:32:51;;;;;;;5.63;3.97;;;2.00;99.90;;;;;;2044477;28;20262;-64
2024/01/05 00:33:52;;;;;;;5.37;3.03;;;2.00;99.90;;;;;;2043633;28;20680;-64
2024/01/05 00:34:52;;;;;;;5.20;2.93;;;1.90;99.90;;;;;;2044242;28;20235;-63
2024/01/05 00:35:53;;;;;;;4.40;2.63;;;1.90;99.90;;;;;;2046427;28;20234;-63
2024/01/05 00:36:53;;;;;;;6.87;3.60;;;1.90;99.90;;;;;;2043869;28;20341;-65
2024/01/05 00:37:54;;;;;;;4.70;2.63;;;1.90;99.90;;;;;;2046852;28;20234;-64
2024/01/05 00:38:55;;;;;;;7.30;2.60;;;1.90;99.90;;;;;;2047151;28;20277;-63
2024/01/05 00:39:55;;;;;;;6.67;2.97;;;1.90;99.90;;;;;;2045784;28;20224;-64
2024/01/05 00:40:56;;;;;;;5.67;2.90;;;2.00;99.90;;;;;;2047135;28;20222;-64
2024/01/05 00:41:57;;;;;;;9.83;3.17;;;2.00;99.90;;;;;;2045641;28;20229;-63
2024/01/05 00:42:58;;;;;;;7.82;3.10;;;2.10;99.90;;;;;;2044256;28;20237;-65
2024/01/05 00:43:59;;;;;;;6.10;3.10;;;2.10;99.90;;;;;;2043086;28;20226;-65
2024/01/05 00:44:59;;;;;;;8.70;2.87;;;2.00;99.90;;;;;;2045123;28;20226;-64
2024/01/05 00:46:00;;;;;;;7.23;3.10;;;2.10;99.90;;;;;;2046502;28;20222;-64
2024/01/05 00:47:01;;;;;;;5.23;2.97;;;2.10;99.90;;;;;;2051543;28;20697;-64
2024/01/05 00:48:01;;;;;;;4.23;2.63;;;2.10;99.90;;;;;;2051631;28;20185;-64
2024/01/05 00:49:02;;;;;;;4.73;2.57;;;2.20;99.90;;;;;;2051001;28;20189;-64
2024/01/05 00:50:03;;;;;;;3.80;2.47;;;2.20;99.90;;;;;;2053595;28;20215;-64
2024/01/05 00:51:04;;;;;;;6.00;2.65;;;2.20;99.90;;;;;;2045816;28;20195;-65
2024/01/05 00:52:05;;;;;;;5.33;2.63;;;2.20;99.90;;;;;;2045288;28;20289;-65
2024/01/05 00:53:06;;;;;;;4.70;2.93;;;2.20;99.90;;;;;;2043350;28;20183;-64
2024/01/05 00:54:06;;;;;;;5.50;3.23;;;2.30;99.90;;;;;;2043293;28;20531;-63
2024/01/05 00:55:07;;;;;;;4.63;2.80;;;2.20;99.90;;;;;;2038166;28;20195;-64
2024/01/05 00:56:08;;;;;;;4.57;2.23;;;2.30;99.90;;;;;;2044975;28;20193;-64
2024/01/05 00:57:09;;;;;;;5.20;2.40;;;2.20;99.90;;;;;;2045071;28;20222;-64
2024/01/05 00:58:09;;;;;;;5.10;1.90;;;2.20;99.90;;;;;;2044001;28;20591;-65
2024/01/05 00:59:11;;;;;;;3.93;1.90;;;2.20;99.90;;;;;;2042451;28;20191;-65
2024/01/05 01:00:13;;;;;;;3.70;2.00;;;2.20;99.90;;;;;;2045337;28;20192;-65
2024/01/05 01:01:14;;;;;;;7.28;2.10;;;2.20;99.90;;;;;;2044756;28;20179;-64
2024/01/05 01:02:15;;;;;;;3.97;2.03;;;2.20;99.90;;;;;;2044600;28;20271;-64
2024/01/05 01:03:15;;;;;;;5.83;2.07;;;2.30;99.90;;;;;;2044079;28;20184;-65
2024/01/05 01:04:16;;;;;;;3.57;1.70;;;2.30;99.90;;;;;;2046754;28;20278;-64
2024/01/05 01:05:17;;;;;;;3.60;2.03;;;2.30;99.90;;;;;;2046877;28;20318;-64
2024/01/05 01:06:18;;;;;;;4.70;1.70;;;2.30;99.90;;;;;;2044829;28;20456;-64
2024/01/05 01:07:19;;;;;;;7.80;2.17;;;2.30;99.90;;;;;;2044969;28;20189;-65
2024/01/05 01:08:19;;;;;;;7.07;2.20;;;2.40;99.90;;;;;;2047139;28;20195;-64
2024/01/05 01:09:20;;;;;;;3.70;2.17;;;2.30;99.90;;;;;;2046727;28;20259;-65
2024/01/05 01:10:21;;;;;;;4.53;1.50;;;2.30;99.90;;;;;;2046169;28;20596;-65
2024/01/05 01:11:22;;;;;;;3.83;1.73;;;2.40;99.90;;;;;;2045640;28;20235;-65
2024/01/05 01:12:27;;;;;;;4.35;2.42;;;2.40;99.90;;;;;;2044362;28;20231;-64
2024/01/05 01:13:27;;;;;;;2.97;1.60;;;2.50;99.90;;;;;;2043886;28;20235;-64
2024/01/05 01:14:28;;;;;;;5.20;2.03;;;2.60;99.90;;;;;;2045781;28;20329;-65
2024/01/05 01:15:29;;;;;;;4.53;1.57;;;2.50;99.90;;;;;;2045130;28;20633;-64
2024/01/05 01:16:31;;;;;;;3.67;1.70;;;2.60;99.90;;;;;;2044844;28;20240;-65
2024/01/05 01:17:31;;;;;;;3.47;1.40;;;2.60;99.90;;;;;;2039140;29;20294;-65
2024/01/05 01:18:32;;;;;;;3.70;1.83;;;2.60;99.90;;;;;;2037239;29;20235;-65
2024/01/05 01:19:33;;;;;;;4.20;1.53;;;2.50;99.90;;;;;;2046275;28;20338;-65
2024/01/05 01:20:33;;;;;;;4.47;2.03;;;2.50;99.90;;;;;;2045816;28;20911;-65
2024/01/05 01:21:34;;;;;;;2.00;1.30;;;2.50;99.90;;;;;;2045159;28;20243;-64
2024/01/05 01:22:35;;;;;;;2.57;1.60;;;2.60;99.90;;;;;;2044170;28;20240;-65
2024/01/05 01:23:35;;;;;;;5.50;1.93;;;2.70;99.90;;;;;;2051342;28;20262;-64
2024/01/05 01:24:36;;;;;;;3.47;1.90;;;2.80;99.90;;;;;;2038429;29;20224;-64
2024/01/05 01:25:38;;;;;;;4.30;1.50;;;2.80;99.90;;;;;;2035258;29;20295;-65
2024/01/05 01:26:39;;;;;;;4.30;1.40;;;2.80;99.90;;;;;;2052319;28;20219;-65
2024/01/05 01:27:39;;;;;;;4.73;1.93;;;2.80;99.90;;;;;;2042219;28;20235;-65
2024/01/05 01:28:40;;;;;;;2.03;1.40;;;2.80;99.90;;;;;;2042979;28;20598;-64
2024/01/05 01:29:41;;;;;;;3.60;1.70;;;2.80;99.90;;;;;;2046196;28;20258;-64
2024/01/05 01:30:42;;;;;;;4.97;2.03;;;2.80;99.90;;;;;;2036864;29;20274;-64
2024/01/05 01:31:42;;;;;;;5.73;1.90;;;2.70;99.90;;;;;;2038558;29;20216;-64
2024/01/05 01:32:43;;;;;;;4.13;2.60;;;2.80;99.90;;;;;;2046662;28;20254;-65
2024/01/05 01:33:44;;;;;;;4.13;1.80;;;2.70;99.90;;;;;;2044125;28;20309;-65
2024/01/05 01:34:44;;;;;;;3.57;1.90;;;2.80;99.90;;;;;;2046655;28;20245;-65
2024/01/05 01:35:45;;;;;;;4.40;2.10;;;2.70;99.90;;;;;;2045995;28;20739;-64
2024/01/05 01:36:46;;;;;;;4.80;1.97;;;2.70;99.90;;;;;;2044703;28;20230;-64
2024/01/05 01:37:46;;;;;;;3.87;2.10;;;2.70;99.90;;;;;;2043501;28;20255;-65
2024/01/05 01:38:47;;;;;;;4.57;2.13;;;2.70;99.90;;;;;;2042966;28;20219;-65
2024/01/05 01:39:48;;;;;;;5.10;2.03;;;2.70;99.90;;;;;;2046079;28;20254;-64
2024/01/05 01:40:48;;;;;;;6.90;2.37;;;2.60;99.90;;;;;;2045506;28;20307;-65
2024/01/05 01:41:49;;;;;;;3.33;1.73;;;2.60;99.90;;;;;;2044521;28;20237;-65
2024/01/05 01:42:50;;;;;;;3.00;2.10;;;2.60;99.90;;;;;;2042625;28;20660;-64
2024/01/05 01:43:50;;;;;;;4.17;1.83;;;2.60;99.90;;;;;;2044120;28;20706;-65
2024/01/05 01:44:52;;;;;;;3.97;1.77;;;2.60;99.90;;;;;;2046010;28;20235;-64
2024/01/05 01:45:59;;;;;;;4.15;2.15;;;2.50;99.90;;;;;;2046625;28;20632;-64
2024/01/05 01:47:00;;;;;;;3.78;2.25;;;2.50;99.90;;;;;;2043292;28;20234;-65
2024/01/05 01:48:00;;;;;;;2.83;2.00;;;2.50;99.90;;;;;;2042534;28;20254;-64
2024/01/05 01:49:05;;;;;;;3.53;2.13;;;2.50;99.90;;;;;;2044390;28;20253;-64
2024/01/05 01:50:07;;;;;;;2.80;2.10;;;2.50;99.90;;;;;;2044789;28;20180;-63
2024/01/05 01:51:08;;;;;;;3.53;2.10;;;2.60;99.90;;;;;;2036153;29;20186;-65
2024/01/05 01:52:10;;;;;;;4.18;2.10;;;2.70;99.90;;;;;;2035694;29;20188;-63
2024/01/05 01:53:13;;;;;;;5.70;2.28;;;2.60;99.90;;;;;;2035224;29;20195;-65
2024/01/05 01:54:14;;;;;;;6.15;2.28;;;2.70;99.90;;;;;;2046090;28;20591;-63
2024/01/05 01:55:16;;;;;;;6.45;1.83;;;2.60;99.90;;;;;;2045776;28;20277;-64
2024/01/05 01:56:17;;;;;;;8.32;1.77;;;2.60;99.90;;;;;;2034576;28;20179;-64
2024/01/05 01:57:18;;;;;;;4.43;2.30;;;2.60;99.90;;;;;;2038757;28;20627;-64
2024/01/05 01:58:21;;;;;;;5.82;2.17;;;2.60;99.90;;;;;;2039204;29;20223;-65
2024/01/05 01:59:22;;;;;;;4.93;2.47;;;2.60;99.90;;;;;;2030575;29;20599;-65
2024/01/05 02:00:23;;;;;;;3.40;1.70;;;2.60;99.90;;;;;;2030843;29;20235;-64
2024/01/05 02:01:24;;;;;;;5.63;1.73;;;2.60;99.90;;;;;;2042435;28;20234;-64
2024/01/05 02:02:26;;;;;;;3.08;1.65;;;2.60;99.90;;;;;;2042909;28;20700;-64
2024/01/05 02:03:26;;;;;;;4.05;1.35;;;2.70;99.90;;;;;;2043187;28;20242;-65
2024/01/05 02:04:29;;;;;;;6.10;1.80;;;2.70;99.90;;;;;;2044738;28;20235;-65
2024/01/05 02:05:30;;;;;;;3.97;1.73;;;2.70;99.90;;;;;;2044340;28;20239;-64
2024/01/05 02:06:31;;;;;;;3.03;1.73;;;2.70;99.90;;;;;;2044090;28;20693;-64
2024/01/05 02:07:32;;;;;;;7.22;1.88;;;2.70;99.90;;;;;;2042113;28;20610;-64
2024/01/05 02:08:34;;;;;;;2.80;1.97;;;2.70;99.90;;;;;;2041907;28;20245;-65
2024/01/05 02:09:35;;;;;;;2.47;1.60;;;2.70;99.90;;;;;;2043847;28;20239;-64
2024/01/05 02:10:36;;;;;;;6.60;2.15;;;2.70;99.90;;;;;;2035737;29;20722;-65
2024/01/05 02:11:37;;;;;;;7.53;2.57;;;2.70;99.90;;;;;;2043471;28;20231;-65
2024/01/05 02:12:38;;;;;;;5.65;2.30;;;2.70;99.90;;;;;;2041794;28;20819;-65
2024/01/05 02:13:39;;;;;;;4.63;1.90;;;2.60;99.90;;;;;;2044981;28;20235;-63
2024/01/05 02:14:39;;;;;;;3.97;2.08;;;2.60;99.90;;;;;;2044957;28;20593;-65
2024/01/05 02:15:40;;;;;;;5.67;1.70;;;2.50;99.90;;;;;;2044049;28;20225;-65
2024/01/05 02:16:41;;;;;;;7.73;1.97;;;2.50;99.90;;;;;;2042933;28;20227;-65
2024/01/05 02:17:42;;;;;;;2.55;1.27;;;2.50;99.90;;;;;;2042565;28;20222;-64
2024/01/05 02:18:51;;;;;;;4.90;2.30;;;2.50;99.90;;;;;;2045135;28;20219;-65
2024/01/05 02:19:52;;;;;;;3.58;1.85;;;2.50;99.90;;;;;;2043863;28;20234;-64
2024/01/05 02:20:53;;;;;;;6.03;2.30;;;2.50;99.90;;;;;;2043063;28;20226;-65
2024/01/05 02:21:56;;;;;;;4.00;1.57;;;2.50;99.90;;;;;;2042452;28;20223;-65
2024/01/05 02:23:02;;;;;;;2.47;1.38;;;2.50;99.90;;;;;;2043262;28;20589;-65
2024/01/05 02:24:03;;;;;;;4.28;1.60;;;2.60;99.90;;;;;;2035397;29;20685;-64
2024/01/05 02:25:04;;;;;;;4.50;1.60;;;2.50;99.90;;;;;;2028335;29;20191;-65
2024/01/05 02:26:05;;;;;;;5.25;1.90;;;2.40;99.90;;;;;;2044622;28;20290;-64
2024/01/05 02:27:06;;;;;;;3.10;1.73;;;2.40;99.90;;;;;;2043178;28;20646;-64
2024/01/05 02:28:07;;;;;;;5.23;1.90;;;2.40;99.90;;;;;;2044614;28;20180;-64
2024/01/05 02:29:08;;;;;;;2.33;1.50;;;2.40;99.90;;;;;;2044546;28;20274;-65
2024/01/05 02:30:09;;;;;;;5.22;2.03;;;2.40;99.90;;;;;;2042921;28;20703;-65
2024/01/05 02:31:10;;;;;;;3.53;1.65;;;2.40;99.90;;;;;;2044015;28;20206;-64
2024/01/05 02:32:11;;;;;;;3.47;1.53;;;2.40;99.90;;;;;;2041717;28;20213;-64
2024/01/05 02:33:12;;;;;;;5.32;1.95;;;2.40;99.90;;;;;;2045034;28;20187;-64
2024/01/05 02:34:12;;;;;;;3.30;1.40;;;2.40;99.90;;;;;;2044221;28;20687;-65
2024/01/05 02:35:13;;;;;;;4.37;1.70;;;2.50;99.90;;;;;;2043039;28;20191;-65
2024/01/05 02:36:14;;;;;;;3.67;1.60;;;2.50;99.90;;;;;;2041870;28;20199;-65
2024/01/05 02:37:15;;;;;;;4.33;1.73;;;2.50;99.90;;;;;;2041455;28;20261;-65
2024/01/05 02:38:15;;;;;;;4.40;1.80;;;2.40;99.90;;;;;;2045096;28;20191;-65
2024/01/05 02:39:16;;;;;;;5.30;2.07;;;2.40;99.90;;;;;;2041473;28;20770;-65
2024/01/05 02:40:17;;;;;;;3.93;1.70;;;2.40;99.90;;;;;;2043475;28;20270;-65
2024/01/05 02:41:17;;;;;;;3.17;1.47;;;2.40;99.90;;;;;;2041367;28;20191;-64
2024/01/05 02:42:18;;;;;;;2.63;1.40;;;2.40;99.90;;;;;;2038096;29;20199;-65
2024/01/05 02:43:19;;;;;;;3.60;1.50;;;2.40;99.90;;;;;;2046331;28;20788;-64
2024/01/05 02:44:19;;;;;;;3.33;1.77;;;2.30;99.90;;;;;;2044138;28;20219;-65
2024/01/05 02:45:21;;;;;;;2.73;1.50;;;2.20;99.90;;;;;;2043559;28;20219;-64
2024/01/05 02:46:22;;;;;;;5.75;1.65;;;2.20;99.90;;;;;;2043319;28;20242;-64
2024/01/05 02:47:22;;;;;;;4.20;1.70;;;2.20;99.90;;;;;;2050137;28;20223;-65
2024/01/05 02:48:23;;;;;;;3.00;2.13;;;2.20;99.90;;;;;;2052482;28;20237;-65
2024/01/05 02:49:23;;;;;;;3.67;1.73;;;2.20;99.90;;;;;;2043177;28;20639;-65
2024/01/05 02:50:24;;;;;;;3.30;1.83;;;2.20;99.90;;;;;;2043763;28;20233;-65
2024/01/05 02:51:25;;;;;;;5.07;2.37;;;2.20;99.90;;;;;;2039130;28;20274;-63
2024/01/05 02:52:26;;;;;;;2.53;1.50;;;2.40;99.90;;;;;;2043649;28;20232;-65
2024/01/05 02:53:26;;;;;;;4.13;1.93;;;2.40;99.90;;;;;;2046204;28;20326;-65
2024/01/05 02:54:29;;;;;;;3.70;1.60;;;2.30;99.90;;;;;;2046117;28;20234;-65
2024/01/05 02:55:29;;;;;;;5.35;2.13;;;2.30;99.90;;;;;;2047350;28;20237;-64
2024/01/05 02:56:31;;;;;;;2.30;1.37;;;2.30;99.90;;;;;;2047066;28;20253;-65
2024/01/05 02:57:31;;;;;;;5.65;2.22;;;2.30;99.90;;;;;;2044662;28;20231;-64
2024/01/05 02:58:32;;;;;;;4.87;2.33;;;2.20;99.90;;;;;;2045972;28;20266;-65
2024/01/05 02:59:34;;;;;;;3.50;1.50;;;2.10;99.90;;;;;;2037321;29;20232;-64
2024/01/05 03:00:35;;;;;;;4.25;1.40;;;2.10;99.90;;;;;;2046897;28;20243;-65
2024/01/05 03:01:36;;;;;;;3.60;1.20;;;2.20;99.90;;;;;;2043951;28;20237;-65
2024/01/05 03:02:37;;;;;;;2.37;1.33;;;2.20;99.90;;;;;;2043395;28;20225;-64
2024/01/05 03:03:39;;;;;;;1.50;1.10;;;2.30;99.90;;;;;;2053714;28;20284;-64
2024/01/05 03:04:43;;;;;;;4.70;2.08;;;2.30;99.90;;;;;;2052905;28;20218;-65
2024/01/05 03:05:44;;;;;;;4.50;1.90;;;2.30;99.90;;;;;;2046810;28;20628;-65
2024/01/05 03:06:44;;;;;;;2.97;1.77;;;2.30;99.90;;;;;;2046667;28;20270;-65
2024/01/05 03:07:46;;;;;;;2.57;1.60;;;2.40;99.90;;;;;;2047225;28;20735;-64
2024/01/05 03:08:47;;;;;;;4.95;1.50;;;2.40;99.90;;;;;;2035783;28;20230;-64
2024/01/05 03:09:48;;;;;;;7.00;1.70;;;2.40;99.90;;;;;;2036581;28;20224;-65
2024/01/05 03:10:48;;;;;;;3.73;1.70;;;2.40;99.90;;;;;;2044230;28;20323;-65
2024/01/05 03:11:49;;;;;;;3.40;1.30;;;2.40;99.90;;;;;;2042657;28;20291;-64
2024/01/05 03:12:51;;;;;;;5.20;1.97;;;2.40;99.90;;;;;;2043789;28;20230;-64
2024/01/05 03:13:52;;;;;;;2.28;1.25;;;2.30;99.90;;;;;;2044505;28;20254;-65
2024/01/05 03:14:53;;;;;;;2.53;1.30;;;2.40;99.90;;;;;;2035981;29;20255;-65
2024/01/05 03:15:53;;;;;;;4.50;1.67;;;2.40;99.90;;;;;;2033649;29;20214;-64
2024/01/05 03:16:54;;;;;;;3.03;1.80;;;2.50;99.90;;;;;;2043634;28;20316;-64
2024/01/05 03:17:55;;;;;;;1.67;1.17;;;2.60;99.90;;;;;;2037420;28;20231;-64
2024/01/05 03:18:55;;;;;;;4.67;1.40;;;2.60;99.90;;;;;;2036811;28;20220;-64
2024/01/05 03:19:56;;;;;;;3.23;1.30;;;2.70;99.90;;;;;;2027906;29;20232;-64
2024/01/05 03:20:57;;;;;;;4.00;1.50;;;2.70;99.90;;;;;;2034823;29;20313;-65
2024/01/05 03:21:57;;;;;;;3.13;1.30;;;2.70;99.90;;;;;;2044775;28;20786;-64
2024/01/05 03:22:58;;;;;;;5.17;1.83;;;2.70;99.90;;;;;;2044815;28;20230;-65
2024/01/05 03:23:59;;;;;;;5.73;2.07;;;2.80;99.90;;;;;;2045284;28;20234;-65
2024/01/05 03:24:59;;;;;;;7.37;2.87;;;2.80;99.90;;;;;;2044188;28;20365;-64
2024/01/05 03:26:00;;;;;;;5.50;2.80;;;2.70;99.90;;;;;;2042890;28;20217;-64
2024/01/05 03:27:01;;;;;;;3.70;2.00;;;2.70;99.90;;;;;;2044592;28;21090;-64
2024/01/05 03:28:01;;;;;;;6.80;2.70;;;2.60;99.90;;;;;;2032484;29;20690;-64
2024/01/05 03:29:02;;;;;;;6.90;2.60;;;2.70;99.90;;;;;;2046099;28;20182;-65
2024/01/05 03:30:03;;;;;;;3.97;1.63;;;2.70;99.90;;;;;;2044375;28;20219;-64
2024/01/05 03:31:04;;;;;;;3.28;1.42;;;2.70;99.90;;;;;;2042799;28;20183;-64
2024/01/05 03:32:06;;;;;;;5.60;2.07;;;2.80;99.90;;;;;;2045490;28;20892;-64
2024/01/05 03:33:06;;;;;;;4.97;2.00;;;2.70;99.90;;;;;;2045120;28;20190;-65
2024/01/05 03:34:07;;;;;;;6.43;2.40;;;2.80;99.90;;;;;;2044391;28;20757;-65
2024/01/05 03:35:08;;;;;;;5.37;2.07;;;2.80;99.90;;;;;;2044102;28;20237;-64
2024/01/05 03:36:09;;;;;;;5.27;2.20;;;2.80;99.90;;;;;;2043211;28;20202;-65
2024/01/05 03:37:09;;;;;;;3.33;2.07;;;2.70;99.90;;;;;;2045164;28;20242;-64
2024/01/05 03:38:10;;;;;;;3.23;1.90;;;2.70;99.90;;;;;;2045635;28;20182;-65
2024/01/05 03:39:10;;;;;;;3.23;1.60;;;2.70;99.90;;;;;;2046248;28;20711;-65
2024/01/05 03:40:11;;;;;;;4.80;2.63;;;2.70;99.90;;;;;;2043937;28;20273;-65
2024/01/05 03:41:13;;;;;;;3.10;1.93;;;2.60;99.90;;;;;;2042181;28;20179;-65
2024/01/05 03:42:14;;;;;;;6.07;1.83;;;2.60;99.90;;;;;;2045529;28;20590;-64
2024/01/05 03:43:15;;;;;;;8.40;1.80;;;2.60;99.90;;;;;;2045069;28;20210;-65
2024/01/05 03:44:20;;;;;;;3.23;2.03;;;2.50;99.90;;;;;;2036498;29;20239;-64
2024/01/05 03:45:21;;;;;;;5.50;1.83;;;2.60;99.90;;;;;;2044140;28;22780;-64
2024/01/05 03:46:21;;;;;;;3.30;1.60;;;2.60;99.90;;;;;;2045404;28;20703;-64
2024/01/05 03:47:22;;;;;;;5.67;1.90;;;2.60;99.90;;;;;;2047075;28;20235;-64
2024/01/05 03:48:23;;;;;;;4.13;1.90;;;2.70;99.90;;;;;;2037639;29;20676;-65
2024/01/05 03:49:23;;;;;;;4.97;2.20;;;2.60;99.90;;;;;;2036726;29;20231;-65
2024/01/05 03:50:25;;;;;;;2.77;1.60;;;2.60;99.90;;;;;;2043669;28;20223;-65
2024/01/05 03:51:25;;;;;;;4.95;1.50;;;2.60;99.90;;;;;;2043699;28;20231;-64
2024/01/05 03:52:26;;;;;;;4.57;1.60;;;2.60;99.90;;;;;;2046268;28;20231;-64
2024/01/05 03:53:27;;;;;;;3.37;1.70;;;2.60;99.90;;;;;;2046959;28;20313;-65
2024/01/05 03:54:27;;;;;;;3.93;2.20;;;2.60;99.90;;;;;;2044474;28;20255;-64
2024/01/05 03:55:28;;;;;;;2.97;1.63;;;2.50;99.90;;;;;;2043317;28;20235;-65
2024/01/05 03:56:37;;;;;;;4.70;1.63;;;2.50;99.90;;;;;;2043907;28;20234;-65
2024/01/05 03:57:38;;;;;;;5.00;1.63;;;2.60;99.90;;;;;;2046761;28;20305;-65
2024/01/05 03:58:39;;;;;;;7.37;1.93;;;2.60;99.90;;;;;;2046901;28;20707;-65
2024/01/05 03:59:42;;;;;;;3.73;1.50;;;2.60;99.90;;;;;;2044876;28;20232;-65
2024/01/05 04:00:43;;;;;;;4.53;1.40;;;2.50;99.90;;;;;;2035343;29;20623;-65
2024/01/05 04:01:45;;;;;;;4.17;2.20;;;2.50;99.90;;;;;;2035460;29;20253;-64
2024/01/05 04:02:46;;;;;;;3.75;1.73;;;2.40;99.90;;;;;;2044694;28;20231;-65
2024/01/05 04:03:47;;;;;;;6.50;2.27;;;2.40;99.90;;;;;;2043997;28;20304;-65
2024/01/05 04:04:47;;;;;;;5.27;2.33;;;2.40;99.90;;;;;;2051974;28;20308;-65
2024/01/05 04:05:48;;;;;;;7.70;1.90;;;2.50;99.90;;;;;;2044132;28;20218;-65
2024/01/05 04:06:51;;;;;;;10.80;2.53;;;2.50;99.90;;;;;;2046627;28;20280;-65
2024/01/05 04:07:51;;;;;;;5.25;2.10;;;2.50;99.90;;;;;;2045547;28;20230;-65
2024/01/05 04:08:52;;;;;;;4.63;1.57;;;2.50;99.90;;;;;;2044358;28;20226;-64
2024/01/05 04:09:53;;;;;;;3.60;2.20;;;2.60;99.90;;;;;;2043254;28;20230;-65
2024/01/05 04:10:53;;;;;;;4.37;2.00;;;2.60;99.90;;;;;;2042860;28;20587;-65
2024/01/05 04:11:54;;;;;;;6.50;2.20;;;2.60;99.90;;;;;;2045734;28;20230;-65
2024/01/05 04:12:55;;;;;;;5.07;1.87;;;2.70;99.90;;;;;;2053325;28;20234;-65
2024/01/05 04:13:58;;;;;;;5.83;1.90;;;2.60;99.90;;;;;;2052773;28;20229;-65
2024/01/05 04:14:59;;;;;;;4.43;2.75;;;2.60;99.90;;;;;;2043411;28;20261;-65
2024/01/05 04:16:00;;;;;;;5.03;1.77;;;2.60;99.90;;;;;;2044251;28;20234;-65
2024/01/05 04:17:00;;;;;;;4.70;1.70;;;2.60;99.90;;;;;;2046664;28;20238;-65
2024/01/05 04:18:01;;;;;;;6.27;2.10;;;2.70;99.90;;;;;;2043308;28;20276;-65
2024/01/05 04:19:02;;;;;;;6.43;2.00;;;2.70;99.90;;;;;;2044245;28;20649;-65
2024/01/05 04:20:03;;;;;;;5.22;2.30;;;2.70;99.90;;;;;;2042606;28;20263;-65
2024/01/05 04:21:04;;;;;;;6.82;1.95;;;2.80;99.90;;;;;;2045036;28;20647;-64
2024/01/05 04:22:06;;;;;;;6.13;2.30;;;2.70;99.90;;;;;;2045308;28;20191;-65
2024/01/05 04:23:07;;;;;;;4.82;1.88;;;2.60;99.90;;;;;;2043643;28;20185;-65
2024/01/05 04:24:08;;;;;;;4.60;1.53;;;2.60;99.90;;;;;;2043998;28;20209;-65
2024/01/05 04:25:09;;;;;;;5.93;1.90;;;2.60;99.90;;;;;;2043951;28;20693;-65
2024/01/05 04:26:10;;;;;;;5.23;2.17;;;2.60;99.90;;;;;;2044993;28;20184;-65
2024/01/05 04:27:10;;;;;;;5.47;2.10;;;2.70;99.90;;;;;;2036410;29;20339;-64
2024/01/05 04:28:11;;;;;;;6.80;2.37;;;2.70;99.90;;;;;;2043396;28;20225;-65
2024/01/05 04:29:12;;;;;;;3.87;1.90;;;2.70;99.90;;;;;;2043714;28;20211;-65
2024/01/05 04:30:12;;;;;;;6.67;2.47;;;2.60;99.90;;;;;;2043236;28;20189;-64
2024/01/05 04:31:13;;;;;;;6.60;2.40;;;2.50;99.90;;;;;;2045756;28;20191;-65
2024/01/05 04:32:14;;;;;;;4.10;2.40;;;2.60;99.90;;;;;;2044158;28;20198;-65
2024/01/05 04:33:14;;;;;;;10.03;2.73;;;2.50;99.90;;;;;;2043169;28;20183;-64
2024/01/05 04:34:15;;;;;;;6.07;2.20;;;2.50;99.90;;;;;;2044232;28;20192;-65
2024/01/05 04:35:16;;;;;;;6.17;2.30;;;2.60;99.90;;;;;;2042548;28;20274;-65
2024/01/05 04:36:18;;;;;;;7.07;2.77;;;2.60;99.90;;;;;;2044425;28;20190;-64
2024/01/05 04:37:19;;;;;;;8.68;2.30;;;2.60;99.90;;;;;;2045328;28;20237;-64
2024/01/05 04:38:20;;;;;;;3.60;1.70;;;2.70;99.90;;;;;;2042716;28;20202;-65
2024/01/05 04:39:20;;;;;;;2.93;1.77;;;2.70;99.90;;;;;;2043393;28;20241;-64
2024/01/05 04:40:21;;;;;;;4.73;1.73;;;2.70;99.90;;;;;;2042836;28;20291;-65
2024/01/05 04:41:22;;;;;;;5.17;3.20;;;2.80;99.90;;;;;;2045800;28;20227;-65
2024/01/05 04:42:23;;;;;;;6.38;2.70;;;2.80;99.90;;;;;;2045016;28;20735;-64
2024/01/05 04:43:24;;;;;;;8.23;2.93;;;2.90;99.90;;;;;;2044445;28;20235;-64
2024/01/05 04:44:25;;;;;;;4.55;2.42;;;2.90;99.90;;;;;;2044356;28;20240;-64
2024/01/05 04:45:26;;;;;;;4.33;2.60;;;2.90;99.90;;;;;;2043411;28;20251;-65
2024/01/05 04:46:26;;;;;;;5.50;1.90;;;3.00;99.90;;;;;;2046596;28;20670;-65
2024/01/05 04:47:27;;;;;;;2.73;1.87;;;2.90;99.90;;;;;;2036169;29;20228;-65
2024/01/05 04:48:27;;;;;;;3.83;1.57;;;2.90;99.90;;;;;;2035578;29;20235;-65
2024/01/05 04:49:28;;;;;;;3.20;1.87;;;2.90;99.90;;;;;;2043652;28;20226;-65
2024/01/05 04:50:29;;;;;;;2.80;1.67;;;2.80;99.90;;;;;;2043700;28;20231;-65
2024/01/05 04:51:30;;;;;;;2.97;1.83;;;2.80;99.90;;;;;;2046073;28;20231;-65
2024/01/05 04:52:30;;;;;;;3.40;1.70;;;2.90;99.90;;;;;;2044580;28;20235;-65
2024/01/05 04:53:31;;;;;;;3.27;1.60;;;2.90;99.90;;;;;;2043995;28;20238;-65
2024/01/05 04:54:32;;;;;;;2.37;1.70;;;2.90;99.90;;;;;;2046841;28;20227;-65
2024/01/05 04:55:32;;;;;;;5.47;2.00;;;2.90;99.90;;;;;;2038161;28;20234;-65
2024/01/05 04:56:33;;;;;;;3.77;1.53;;;2.80;99.90;;;;;;2044852;28;20248;-65
2024/01/05 04:57:34;;;;;;;1.80;1.43;;;2.90;99.90;;;;;;2044828;28;20239;-64
2024/01/05 04:58:34;;;;;;;3.47;2.00;;;2.90;99.90;;;;;;2044507;28;20255;-64
2024/01/05 04:59:37;;;;;;;3.47;2.10;;;2.90;99.90;;;;;;2043118;28;20230;-64
2024/01/05 05:00:37;;;;;;;4.78;2.22;;;2.80;99.90;;;;;;2043267;28;20293;-65
2024/01/05 05:01:38;;;;;;;2.27;1.53;;;2.80;99.90;;;;;;2045100;28;20232;-65
2024/01/05 05:02:39;;;;;;;2.80;1.37;;;2.80;99.90;;;;;;2045433;28;20226;-64
2024/01/05 05:03:39;;;;;;;2.07;1.30;;;2.80;99.90;;;;;;2043749;28;20261;-64
2024/01/05 05:04:40;;;;;;;1.90;1.30;;;2.70;99.90;;;;;;2042459;28;20262;-65
2024/01/05 05:05:41;;;;;;;2.23;1.53;;;2.70;99.90;;;;;;2045408;28;20251;-64
2024/01/05 05:06:41;;;;;;;1.73;1.07;;;2.70;99.90;;;;;;2042577;28;20665;-65
2024/01/05 05:07:43;;;;;;;3.23;1.70;;;2.70;99.90;;;;;;2042414;28;20858;-65
2024/01/05 05:08:44;;;;;;;2.45;1.60;;;2.60;99.90;;;;;;2046263;28;20215;-64
2024/01/05 05:09:44;;;;;;;3.03;1.33;;;2.70;99.90;;;;;;2045753;28;20771;-65
2024/01/05 05:10:45;;;;;;;1.40;0.93;;;2.70;99.90;;;;;;2045922;28;20227;-64
2024/01/05 05:11:46;;;;;;;3.23;1.17;;;2.60;99.90;;;;;;2045236;28;20237;-65
2024/01/05 05:12:46;;;;;;;2.13;1.37;;;2.70;99.90;;;;;;2044443;28;20771;-65
2024/01/05 05:13:47;;;;;;;1.57;1.10;;;2.70;99.90;;;;;;2043463;28;20248;-64
2024/01/05 05:14:48;;;;;;;1.57;1.10;;;2.60;99.90;;;;;;2041877;28;20309;-65
2024/01/05 05:15:48;;;;;;;2.60;1.43;;;2.60;99.90;;;;;;2052387;28;20372;-65
2024/01/05 05:16:49;;;;;;;7.47;2.07;;;2.50;99.90;;;;;;2044973;28;20220;-64
2024/01/05 05:17:52;;;;;;;3.60;1.43;;;2.40;99.90;;;;;;2044586;28;20754;-65
2024/01/05 05:18:53;;;;;;;3.97;1.60;;;2.40;99.90;;;;;;2043434;28;20222;-65
2024/01/05 05:19:55;;;;;;;4.30;1.60;;;2.30;99.90;;;;;;2042892;28;20309;-65
2024/01/05 05:20:56;;;;;;;3.28;1.95;;;2.30;99.90;;;;;;2045291;28;20227;-64
2024/01/05 05:21:56;;;;;;;2.33;1.50;;;2.30;99.90;;;;;;2044570;28;20755;-64